Stations météo

réclame
Mon MeteoGroup
Herwijnen aws, Pays-Bas (6356): Température de l'air & dewpoint: 30.06.2020 10:00:00 - 06.07.2020 10:00:00 (CEST)Herwijnen aws, Pays-Bas (6356): Température de l'air 5cm: 30.06.2020 10:00:00 - 06.07.2020 10:00:00 (CEST)Herwijnen aws, Pays-Bas (6356): Vitesse du vent & gusts: 30.06.2020 10:00:00 - 06.07.2020 10:00:00 (CEST)Herwijnen aws, Pays-Bas (6356): Direction du vent: 30.06.2020 10:00:00 - 06.07.2020 10:00:00 (CEST)Herwijnen aws, Pays-Bas (6356): reduced air pressure: 30.06.2020 10:00:00 - 06.07.2020 10:00:00 (CEST)Herwijnen aws, Pays-Bas (6356): Quantités de précipitations: 30.06.2020 10:00:00 - 06.07.2020 10:00:00 (CEST)
Date & Time tt [°C] td [°C] tt 5cm [°C] ff [km/h] ff [knt] fx [km/h] fx [knt] dd ppp [hPa] rr [mm]
06.07.2020 10:00:00 15,6 10,0 17,0 33 18 - - W 1013,8 -
06.07.2020 09:00:00 15,7 10,0 16,1 29 16 40 21 W 1013,3 0,0
06.07.2020 08:00:00 15,1 9,7 14,7 25 14 43 23 W 1012,7 0,0
06.07.2020 07:00:00 14,3 9,9 13,8 22 12 36 19 W 1012,3 0,0
06.07.2020 06:00:00 14,3 9,4 13,5 25 14 36 19 W 1011,8 0,0
06.07.2020 05:00:00 13,6 9,5 12,8 22 12 32 18 WSW 1011,5 0,0
06.07.2020 04:00:00 14,1 9,3 12,9 22 12 32 18 WSW 1011,5 0,0
06.07.2020 03:00:00 14,3 11,3 13,8 22 12 32 18 SW 1011,5 0,0
06.07.2020 02:00:00 14,1 11,8 13,5 22 12 36 19 WSW 1011,5 0,0
06.07.2020 01:00:00 14,5 11,2 14,0 29 16 43 23 WSW 1011,4 0,0
06.07.2020 00:00:00 15,4 10,9 15,1 29 16 40 21 WSW 1011,3 0,0
05.07.2020 23:00:00 16,2 10,9 15,7 29 16 43 23 WSW 1011,0 0,0
05.07.2020 22:00:00 16,9 10,5 16,1 25 14 36 19 WSW 1010,8 0,0
05.07.2020 21:00:00 17,7 11,7 17,1 25 14 43 23 WSW 1010,4 0,0
05.07.2020 20:00:00 18,4 11,2 18,1 32 18 47 25 W 1010,3 0,0
05.07.2020 19:00:00 20,8 12,7 21,7 36 19 54 29 WSW 1009,9 0,0
05.07.2020 18:00:00 20,9 14,0 22,0 32 18 54 29 WSW 1010,3 0,0
05.07.2020 17:00:00 20,9 15,0 21,3 29 16 58 31 WSW 1010,4 0,0
05.07.2020 16:00:00 21,0 16,1 21,9 36 19 50 27 WSW 1010,5 0,0
05.07.2020 15:00:00 19,2 16,6 19,0 36 19 50 27 WSW 1010,5 0,6
05.07.2020 14:00:00 17,6 16,8 17,8 32 18 54 29 WSW 1010,7 1,3
05.07.2020 13:00:00 17,5 16,7 17,9 32 18 58 31 WSW 1010,5 0,3
05.07.2020 12:00:00 17,7 16,6 17,7 36 19 54 29 WSW 1010,2 0,5
05.07.2020 11:00:00 17,5 16,4 17,8 32 18 50 27 SW 1010,2 0,0
05.07.2020 10:00:00 17,9 15,9 17,9 32 18 54 29 SW 1010,0 0,0
05.07.2020 09:00:00 17,7 15,4 17,7 32 18 54 29 SW 1009,6 0,0
05.07.2020 08:00:00 17,3 15,2 17,4 29 16 61 33 SW 1009,5 0,0
05.07.2020 07:00:00 17,2 14,9 17,1 29 16 50 27 SW 1009,8 0,0
05.07.2020 06:00:00 17,1 14,6 16,9 32 18 50 27 SW 1009,6 0,0
05.07.2020 05:00:00 16,9 15,5 16,9 25 14 50 27 SW 1009,7 0,0
05.07.2020 04:00:00 17,5 15,0 17,4 32 18 54 29 WSW 1010,2 0,0
05.07.2020 03:00:00 17,8 16,3 17,8 22 12 54 29 SW 1010,6 0,0
05.07.2020 02:00:00 17,9 16,4 17,7 29 16 54 29 WSW 1010,9 0,1
05.07.2020 01:00:00 18,0 17,7 18,1 22 12 43 23 WSW 1010,9 1,9
05.07.2020 00:00:00 18,0 17,7 18,2 22 12 36 19 SW 1010,9 1,7
04.07.2020 23:00:00 17,9 17,6 18,0 22 12 40 21 SSW 1011,2 1,1
04.07.2020 22:00:00 17,8 17,4 17,9 22 12 36 19 SW 1011,4 1,6
04.07.2020 21:00:00 17,6 17,2 17,8 22 12 36 19 SW 1011,6 0,7
04.07.2020 20:00:00 17,8 16,8 17,9 18 10 36 19 SSW 1011,7 0,2
04.07.2020 19:00:00 17,6 16,7 17,8 22 12 32 18 SSW 1012,3 0,1
04.07.2020 18:00:00 17,2 16,5 17,5 22 12 36 19 SSW 1012,7 0,0
04.07.2020 17:00:00 17,3 15,8 17,7 25 14 43 23 SW 1013,1 0,0
04.07.2020 16:00:00 17,0 15,6 17,2 22 12 43 23 SSW 1013,0 0,0
04.07.2020 15:00:00 17,3 15,2 17,8 29 16 43 23 SSW 1013,1 0,0
04.07.2020 14:00:00 16,8 15,2 17,1 29 16 47 25 SSW 1013,2 0,0
04.07.2020 13:00:00 16,1 14,9 16,5 29 16 47 25 SW 1013,4 0,1
04.07.2020 12:00:00 15,5 14,9 16,2 29 16 40 21 SW 1013,3 0,7
04.07.2020 11:00:00 15,5 14,7 16,1 25 14 47 25 SSW 1013,3 0,2
04.07.2020 10:00:00 17,1 13,5 17,6 29 16 50 27 SW 1013,1 0,0
04.07.2020 09:00:00 16,0 13,2 16,0 29 16 50 27 SW 1013,4 0,0
04.07.2020 08:00:00 15,3 12,7 15,2 32 18 50 27 SW 1013,7 0,0
04.07.2020 07:00:00 14,8 12,9 14,6 18 10 36 19 SSW 1013,8 0,0
04.07.2020 06:00:00 14,4 12,6 14,0 18 10 40 21 SSW 1014,4 0,8
04.07.2020 05:00:00 15,1 11,8 15,0 29 16 50 27 SW 1014,8 0,0
04.07.2020 04:00:00 15,6 11,6 15,4 25 14 40 21 SW 1015,2 0,0
04.07.2020 03:00:00 15,4 11,8 15,2 25 14 40 21 SW 1015,2 0,0
04.07.2020 02:00:00 15,9 11,0 15,7 25 14 36 19 SW 1015,5 0,0
04.07.2020 01:00:00 16,0 10,6 15,5 22 12 36 19 SW 1015,9 0,0
04.07.2020 00:00:00 16,2 10,3 15,7 22 12 40 21 SW 1016,0 0,0
03.07.2020 23:00:00 16,4 10,5 15,6 22 12 36 19 SW 1016,4 0,0
03.07.2020 22:00:00 16,7 10,7 16,2 18 10 36 19 SW 1016,2 0,0
03.07.2020 21:00:00 17,5 11,8 17,3 18 10 36 19 WSW 1016,3 0,0
03.07.2020 20:00:00 19,1 10,8 19,3 29 16 43 23 WSW 1016,2 0,0
03.07.2020 19:00:00 19,8 11,3 20,4 25 14 47 25 WSW 1015,8 0,0
03.07.2020 18:00:00 20,8 12,2 21,7 32 18 47 25 WSW 1016,0 0,0
03.07.2020 17:00:00 20,9 12,4 23,3 25 14 43 23 SW 1016,1 0,0
03.07.2020 16:00:00 20,7 11,5 22,8 32 18 50 27 W 1016,7 0,0
03.07.2020 15:00:00 20,9 13,3 22,2 32 18 47 25 WSW 1016,6 0,0
03.07.2020 14:00:00 19,3 13,9 19,9 25 14 36 19 SW 1016,8 0,0
03.07.2020 13:00:00 19,5 14,2 21,8 25 14 40 21 SW 1016,7 0,0
03.07.2020 12:00:00 19,1 14,6 21,1 25 14 36 19 WSW 1016,7 0,0
03.07.2020 11:00:00 18,2 14,1 20,8 22 12 32 18 SW 1016,5 0,0
03.07.2020 10:00:00 17,5 14,4 18,1 22 12 29 16 SW 1016,4 0,0
03.07.2020 09:00:00 15,8 13,8 16,4 18 10 25 14 SW 1016,4 0,0
03.07.2020 08:00:00 14,9 13,8 15,3 14 8 25 14 SW 1016,2 0,0
03.07.2020 07:00:00 14,5 13,8 14,7 11 6 25 14 SW 1015,9 0,0
03.07.2020 06:00:00 13,8 13,4 13,4 11 6 14 8 SW 1015,6 0,0
03.07.2020 05:00:00 12,6 12,2 11,9 7 4 22 12 SSW 1015,1 0,0
03.07.2020 04:00:00 13,7 12,9 13,3 14 8 25 14 SW 1014,8 0,0
03.07.2020 03:00:00 14,3 12,9 14,0 14 8 25 14 SW 1014,7 0,0
03.07.2020 02:00:00 15,2 13,0 14,9 11 6 22 12 SW 1014,5 0,0
03.07.2020 01:00:00 14,2 13,2 13,7 7 4 22 12 SW 1014,5 0,0
03.07.2020 00:00:00 15,5 13,3 15,3 14 8 22 12 WSW 1014,2 0,0
02.07.2020 23:00:00 15,3 13,2 14,9 14 8 25 14 W 1014,0 0,0
02.07.2020 22:00:00 15,4 12,6 14,8 11 6 25 14 WSW 1013,5 0,0
02.07.2020 21:00:00 16,6 13,5 16,5 14 8 25 14 WSW 1013,0 0,0
02.07.2020 20:00:00 16,6 13,2 16,1 14 8 36 19 WSW 1012,6 1,5
02.07.2020 19:00:00 19,4 11,2 21,0 29 16 40 21 W 1012,0 0,0
02.07.2020 18:00:00 18,9 12,2 18,2 25 14 43 23 W 1011,7 0,0
02.07.2020 17:00:00 19,0 11,6 20,1 29 16 40 21 WSW 1011,4 0,0
02.07.2020 16:00:00 19,9 12,4 21,9 25 14 36 19 SW 1011,4 0,0
02.07.2020 15:00:00 18,5 11,8 19,7 25 14 36 19 W 1011,3 0,0
02.07.2020 14:00:00 18,3 12,6 18,0 25 14 36 19 W 1011,1 0,1
02.07.2020 13:00:00 19,6 14,6 19,8 22 12 36 19 W 1010,7 0,0
02.07.2020 12:00:00 16,8 12,4 17,4 25 14 40 21 W 1010,5 0,0
02.07.2020 11:00:00 19,3 14,6 20,0 25 14 36 19 WSW 1009,8 0,0
02.07.2020 10:00:00 17,8 14,4 18,9 25 14 36 19 WSW 1009,5 0,0
02.07.2020 09:00:00 16,2 13,8 16,7 18 10 29 16 SW 1009,5 0,0
02.07.2020 08:00:00 15,0 13,4 14,9 14 8 22 12 SW 1009,3 0,0
02.07.2020 07:00:00 14,2 12,6 14,3 14 8 22 12 SSW 1009,1 0,0
02.07.2020 06:00:00 13,8 12,4 13,7 14 8 18 10 SSW 1008,8 0,0
02.07.2020 05:00:00 13,6 12,1 13,3 14 8 18 10 SSW 1008,7 0,0
02.07.2020 04:00:00 13,7 12,1 13,0 11 6 18 10 SSW 1008,5 0,0
02.07.2020 03:00:00 13,9 12,0 13,4 11 6 18 10 SSW 1008,7 0,0
02.07.2020 02:00:00 14,6 12,4 13,9 14 8 22 12 SW 1008,6 0,0
02.07.2020 01:00:00 14,1 12,2 12,9 7 4 18 10 SW 1008,6 0,0
02.07.2020 00:00:00 15,1 12,8 13,9 11 6 18 10 WSW 1008,3 0,0
01.07.2020 23:00:00 14,9 12,8 13,7 7 4 22 12 WSW 1008,2 0,0
01.07.2020 22:00:00 16,4 12,9 15,9 14 8 25 14 W 1007,6 0,0
01.07.2020 21:00:00 18,6 12,9 18,6 22 12 32 18 W 1007,3 0,0
01.07.2020 20:00:00 18,7 13,0 18,7 22 12 36 19 W 1007,1 0,0
01.07.2020 19:00:00 20,3 13,5 20,1 25 14 43 23 W 1006,9 0,0
01.07.2020 18:00:00 19,3 13,1 19,9 25 14 43 23 W 1006,8 0,0
01.07.2020 17:00:00 20,1 14,3 20,7 29 16 43 23 W 1006,6 0,0
01.07.2020 16:00:00 19,5 14,4 20,5 25 14 43 23 WSW 1006,3 0,0
01.07.2020 15:00:00 18,9 14,1 19,6 29 16 40 21 WSW 1006,1 0,0
01.07.2020 14:00:00 18,7 16,0 19,2 25 14 40 21 SW 1006,0 0,1
01.07.2020 13:00:00 17,1 15,5 17,8 22 12 32 18 SW 1005,7 0,3
01.07.2020 12:00:00 16,7 15,4 17,3 22 12 29 16 SW 1005,7 1,4
01.07.2020 11:00:00 17,7 16,1 18,5 18 10 29 16 SW 1005,5 0,5
01.07.2020 10:00:00 17,1 16,4 17,6 22 12 32 18 WSW 1006,1 2,8
01.07.2020 09:00:00 17,1 16,7 17,4 11 6 25 14 SW 1005,4 2,3
01.07.2020 08:00:00 17,2 16,5 17,4 22 12 29 16 SW 1004,5 1,4
01.07.2020 07:00:00 17,2 16,7 17,3 14 8 25 14 SW 1005,3 0,7
01.07.2020 06:00:00 17,0 16,7 17,1 14 8 22 12 SSW 1005,4 1,0
01.07.2020 05:00:00 17,0 16,5 17,1 11 6 29 16 WSW 1005,6 0,3
01.07.2020 04:00:00 17,1 16,5 17,2 11 6 25 14 WSW 1005,8 0,1
01.07.2020 03:00:00 17,1 16,6 17,1 14 8 32 18 WSW 1006,8 0,1
01.07.2020 02:00:00 17,0 16,6 17,1 18 10 29 16 WSW 1006,5 0,5
01.07.2020 01:00:00 17,0 16,7 17,1 18 10 32 18 WSW 1006,9 0,9
01.07.2020 00:00:00 16,6 16,5 16,8 14 8 25 14 SW 1007,2 2,1
30.06.2020 23:00:00 16,3 15,9 16,5 18 10 29 16 WSW 1007,3 0,7
30.06.2020 22:00:00 16,5 15,8 16,5 25 14 32 18 WSW 1007,4 2,3
30.06.2020 21:00:00 16,4 16,0 16,6 18 10 40 21 SW 1007,1 1,6
30.06.2020 20:00:00 16,3 15,7 16,5 18 10 32 18 SSW 1007,1 0,5
30.06.2020 19:00:00 16,2 15,6 16,6 18 10 32 18 S 1007,5 0,0
30.06.2020 18:00:00 16,0 15,2 16,5 22 12 36 19 SSW 1008,1 0,2
30.06.2020 17:00:00 16,3 14,6 17,1 22 12 32 18 SSW 1008,6 0,6
30.06.2020 16:00:00 17,3 13,7 17,6 18 10 29 16 SW 1008,8 0,1
30.06.2020 15:00:00 18,1 12,6 17,9 14 8 40 21 WSW 1008,8 0,0
30.06.2020 14:00:00 17,8 12,7 20,2 29 16 40 21 SW 1008,9 0,0
30.06.2020 13:00:00 16,5 13,6 18,9 25 14 50 27 SW 1009,1 0,2
30.06.2020 12:00:00 15,4 12,8 16,6 32 18 50 27 WSW 1009,2 0,2
30.06.2020 11:00:00 15,9 11,7 17,7 22 12 58 31 SW 1008,7 0,0
30.06.2020 10:00:00 16,3 11,6 16,9 32 18 47 25 WSW 1008,8 0,0

tt = Température de l'air
td = dewpoint
tt 5cm = Température de l'air 5cm
ff = Vitesse du vent
fx = gusts
dd = Direction du vent
ppp = reduced air pressure
rr = Quantités de précipitations

stations d'obs. à proximité